createdAt,value
2022-08-11T00:02:01.334Z,100587.09
2022-08-11T00:04:36.399Z,100585.18
2022-08-11T00:07:07.564Z,100582.69
2022-08-11T00:09:39.582Z,100582.94
2022-08-11T00:12:16.968Z,100592.59
2022-08-11T00:14:47.097Z,100587.43
2022-08-11T00:17:16.261Z,100587.83
2022-08-11T00:20:12.507Z,100581.40
2022-08-11T00:22:36.933Z,100580.84
2022-08-11T00:25:10.135Z,100584.65
2022-08-11T00:27:40.864Z,100582.51
2022-08-11T00:30:12.046Z,100580.94
2022-08-11T00:32:44.262Z,100580.06
2022-08-11T00:35:51.815Z,100572.20
2022-08-11T00:38:07.001Z,100568.16
2022-08-11T00:40:44.754Z,100563.08
2022-08-11T00:43:21.552Z,100564.16
2022-08-11T00:46:01.903Z,100564.21
2022-08-11T00:48:40.272Z,100562.91
2022-08-11T00:51:20.562Z,100562.09
2022-08-11T00:53:54.113Z,100558.41
2022-08-11T00:56:58.231Z,100563.45
2022-08-11T00:59:44.391Z,100563.98
2022-08-11T01:02:22.704Z,100566.59
2022-08-11T01:05:36.025Z,100564.62
2022-08-11T01:08:22.212Z,100565.40
2022-08-11T01:11:11.546Z,100568.37
2022-08-11T01:13:58.049Z,100568.39
2022-08-11T01:16:32.102Z,100564.98
2022-08-11T01:20:47.968Z,100563.05
2022-08-11T01:22:46.094Z,100562.98
2022-08-11T01:25:56.891Z,100562.05
2022-08-11T01:28:37.646Z,100564.95
2022-08-11T01:31:34.857Z,100568.33
2022-08-11T01:34:48.498Z,100572.13
2022-08-11T01:37:52.671Z,100573.46
2022-08-11T01:40:32.350Z,100574.79
2022-08-11T01:43:37.049Z,100573.92
2022-08-11T01:46:09.691Z,100575.41
2022-08-11T01:49:00.301Z,100571.66
2022-08-11T01:52:07.123Z,100572.39
2022-08-11T01:54:44.162Z,100569.04
2022-08-11T01:57:26.837Z,100565.45
2022-08-11T02:00:04.456Z,100563.38
2022-08-11T02:02:48.168Z,100560.40
2022-08-11T02:05:37.990Z,100564.10
2022-08-11T02:08:33.368Z,100564.01
2022-08-11T02:11:35.750Z,100571.52
2022-08-11T02:14:13.076Z,100567.81
2022-08-11T02:16:56.202Z,100565.88
2022-08-11T02:20:10.643Z,100563.67
2022-08-11T02:23:13.912Z,100559.42
2022-08-11T02:26:24.510Z,100563.78
2022-08-11T02:29:08.379Z,100562.33
2022-08-11T02:32:24.953Z,100560.72
2022-08-11T02:35:04.281Z,100558.86
2022-08-11T02:37:32.033Z,100564.34
2022-08-11T02:40:00.579Z,100559.88
2022-08-11T02:42:46.618Z,100564.23
2022-08-11T02:45:29.606Z,100564.35
2022-08-11T02:48:43.941Z,100561.55
2022-08-11T02:51:36.609Z,100563.04
2022-08-11T02:54:11.150Z,100560.84
2022-08-11T02:56:45.414Z,100557.45
2022-08-11T02:59:50.145Z,100550.98
2022-08-11T03:02:27.833Z,100551.78
2022-08-11T03:05:07.333Z,100552.95
2022-08-11T03:08:00.286Z,100555.69
2022-08-11T03:10:43.577Z,100556.46
2022-08-11T03:13:40.277Z,100556.94
2022-08-11T03:16:47.024Z,100559.48
2022-08-11T03:19:39.826Z,100564.44
2022-08-11T03:22:10.745Z,100563.52
2022-08-11T03:24:56.546Z,100564.24
2022-08-11T03:27:37.875Z,100567.90
2022-08-11T03:30:15.558Z,100566.98
2022-08-11T03:33:16.655Z,100561.45
2022-08-11T03:36:22.930Z,100566.00
2022-08-11T03:39:03.255Z,100569.75
2022-08-11T03:42:03.693Z,100574.38
2022-08-11T03:45:07.511Z,100574.54
2022-08-11T03:48:00.160Z,100573.09
2022-08-11T03:50:43.277Z,100577.44
2022-08-11T03:53:28.558Z,100574.41
2022-08-11T03:56:38.550Z,100572.35
2022-08-11T03:59:25.371Z,100571.79
2022-08-11T04:02:02.136Z,100569.95
2022-08-11T04:05:08.123Z,100569.31
2022-08-11T04:08:01.163Z,100570.44
2022-08-11T04:10:57.478Z,100567.05
2022-08-11T04:13:42.435Z,100569.63
2022-08-11T04:16:38.661Z,100569.69
2022-08-11T04:19:13.384Z,100570.16
2022-08-11T04:22:05.881Z,100568.46
2022-08-11T04:25:12.681Z,100571.14
2022-08-11T04:27:58.686Z,100573.77
2022-08-11T04:30:56.713Z,100577.89
2022-08-11T04:34:00.448Z,100570.58
2022-08-11T04:37:17.608Z,100569.11
2022-08-11T04:40:04.383Z,100575.45
2022-08-11T04:42:53.619Z,100570.52
2022-08-11T04:45:36.514Z,100570.91
2022-08-11T04:48:48.935Z,100569.20
2022-08-11T04:52:11.533Z,100573.05
2022-08-11T04:55:31.557Z,100570.06
2022-08-11T04:58:21.328Z,100573.16
2022-08-11T05:01:39.029Z,100575.83
2022-08-11T05:04:28.726Z,100575.54
2022-08-11T05:07:21.648Z,100571.34
2022-08-11T05:10:14.526Z,100570.34
2022-08-11T05:12:48.900Z,100571.54
2022-08-11T05:15:42.512Z,100566.59
2022-08-11T05:18:38.522Z,100566.48
2022-08-11T05:21:31.107Z,100559.92
2022-08-11T05:24:45.665Z,100564.04
2022-08-11T05:27:34.338Z,100565.42
2022-08-11T05:30:28.559Z,100565.61
2022-08-11T05:33:24.107Z,100567.09
2022-08-11T05:36:05.951Z,100566.23
2022-08-11T05:38:55.375Z,100562.02
2022-08-11T05:41:45.502Z,100555.56
2022-08-11T05:44:38.009Z,100553.19
2022-08-11T05:47:24.594Z,100556.90
2022-08-11T05:50:13.566Z,100558.02
2022-08-11T05:53:04.896Z,100557.23
2022-08-11T05:56:03.877Z,100552.38
2022-08-11T05:58:43.094Z,100552.57
2022-08-11T06:01:14.723Z,100551.04
2022-08-11T06:04:03.720Z,100545.50
2022-08-11T06:06:32.377Z,100547.45
2022-08-11T06:09:01.157Z,100542.91
2022-08-11T06:11:44.136Z,100543.09
2022-08-11T06:14:15.915Z,100544.45
2022-08-11T06:16:49.734Z,100547.17
2022-08-11T06:19:23.370Z,100546.16
2022-08-11T06:21:53.231Z,100546.83
2022-08-11T06:24:21.728Z,100550.17
2022-08-11T06:27:11.701Z,100543.33
2022-08-11T06:29:54.420Z,100546.00
2022-08-11T06:32:27.280Z,100545.38
2022-08-11T06:35:04.058Z,100548.40
2022-08-11T06:37:58.762Z,100543.08
2022-08-11T06:40:36.460Z,100547.48
2022-08-11T06:43:18.695Z,100550.34
2022-08-11T06:46:04.193Z,100547.79
2022-08-11T06:48:33.803Z,100550.75
2022-08-11T06:51:12.783Z,100555.94
2022-08-11T06:54:03.291Z,100551.21
2022-08-11T07:00:02.531Z,100555.49
2022-08-11T07:02:53.812Z,100556.82
2022-08-11T07:05:45.300Z,100559.66
2022-08-11T07:09:05.386Z,100556.64
2022-08-11T07:12:19.529Z,100556.78
2022-08-11T07:15:10.471Z,100558.36
2022-08-11T07:17:49.434Z,100561.18
2022-08-11T07:20:36.853Z,100553.98
2022-08-11T07:23:27.873Z,100549.59
2022-08-11T07:26:18.356Z,100549.52
2022-08-11T07:29:00.863Z,100549.35
2022-08-11T07:31:29.179Z,100542.55
2022-08-11T07:34:19.542Z,100540.77
2022-08-11T07:36:53.299Z,100542.55
2022-08-11T07:39:27.035Z,100541.93
2022-08-11T07:41:58.559Z,100536.77
2022-08-11T07:44:35.101Z,100536.38
2022-08-11T07:47:22.782Z,100535.88
2022-08-11T07:50:12.763Z,100534.85
2022-08-11T07:52:41.415Z,100531.90
2022-08-11T07:55:14.851Z,100531.52
2022-08-11T07:58:15.348Z,100532.17
2022-08-11T08:01:21.339Z,100528.07
2022-08-11T08:04:09.678Z,100527.35
2022-08-11T08:06:57.629Z,100522.89
2022-08-11T08:09:44.894Z,100522.02
2022-08-11T08:12:33.793Z,100523.06
2022-08-11T08:15:25.277Z,100521.92
2022-08-11T08:18:20.742Z,100517.86
2022-08-11T08:20:50.393Z,100514.27
2022-08-11T08:23:33.919Z,100511.50
2022-08-11T08:26:05.984Z,100518.67
2022-08-11T08:28:46.579Z,100515.77
2022-08-11T08:31:16.220Z,100511.14
2022-08-11T08:33:45.082Z,100510.19
2022-08-11T08:36:15.416Z,100506.89
2022-08-11T08:38:54.439Z,100506.90
2022-08-11T08:41:30.619Z,100509.09
2022-08-11T08:44:27.616Z,100502.77
2022-08-11T08:46:57.002Z,100502.31
2022-08-11T08:49:40.444Z,100506.20
2022-08-11T08:52:31.895Z,100501.94
2022-08-11T08:55:06.144Z,100500.73
2022-08-11T08:57:39.058Z,100495.26
2022-08-11T09:00:12.969Z,100493.55
2022-08-11T09:02:45.641Z,100499.08
2022-08-11T09:05:18.350Z,100499.31
2022-08-11T09:07:51.279Z,100499.95
2022-08-11T09:10:20.587Z,100489.98
2022-08-11T09:12:50.351Z,100488.24
2022-08-11T09:15:20.146Z,100485.56
2022-08-11T09:17:53.642Z,100483.39
2022-08-11T09:20:26.683Z,100483.42
2022-08-11T09:26:30.988Z,100473.73
2022-08-11T09:29:01.913Z,100475.52
2022-08-11T09:31:39.432Z,100472.64
2022-08-11T09:34:10.676Z,100467.16
2022-08-11T09:36:59.538Z,100464.38
2022-08-11T09:39:50.860Z,100461.48
2022-08-11T09:42:23.420Z,100461.81
2022-08-11T09:44:53.912Z,100461.84
2022-08-11T09:47:28.541Z,100464.36
2022-08-11T09:50:00.811Z,100462.31
2022-08-11T09:52:34.719Z,100450.23
2022-08-11T09:55:06.540Z,100453.17
2022-08-11T09:57:55.131Z,100451.17
2022-08-11T10:00:29.075Z,100448.32
2022-08-11T10:02:58.886Z,100442.34
2022-08-11T10:05:46.002Z,100448.14
2022-08-11T10:08:18.939Z,100443.11
2022-08-11T10:10:49.077Z,100443.70
2022-08-11T10:14:10.048Z,100438.73
2022-08-11T10:16:15.184Z,100436.92
2022-08-11T10:18:53.225Z,100438.20
2022-08-11T10:21:39.129Z,100442.74
2022-08-11T10:24:26.740Z,100437.94
2022-08-11T10:27:00.084Z,100440.20
2022-08-11T10:29:52.115Z,100440.11
2022-08-11T10:32:58.594Z,100433.59
2022-08-11T10:35:31.759Z,100429.16
2022-08-11T10:38:07.277Z,100424.17
2022-08-11T10:40:39.922Z,100419.71
2022-08-11T10:43:59.344Z,100420.66
2022-08-11T10:46:29.919Z,100411.73
2022-08-11T10:49:00.990Z,100404.70
2022-08-11T10:51:53.688Z,100403.44
2022-08-11T10:54:41.701Z,100403.45
2022-08-11T10:57:29.392Z,100400.35
2022-08-11T10:59:58.866Z,100399.04
2022-08-11T11:02:27.550Z,100396.23
2022-08-11T11:05:01.611Z,100400.82
2022-08-11T11:07:44.110Z,100397.88
2022-08-11T11:10:12.724Z,100390.48
2022-08-11T11:13:10.094Z,100388.83
2022-08-11T11:16:00.052Z,100384.45
2022-08-11T11:18:36.133Z,100387.11
2022-08-11T11:21:10.795Z,100381.20
2022-08-11T11:23:51.063Z,100380.30
2022-08-11T11:26:56.350Z,100378.45
2022-08-11T11:29:33.182Z,100375.52
2022-08-11T11:32:16.070Z,100382.18
2022-08-11T11:35:24.003Z,100373.50
2022-08-11T11:38:04.235Z,100362.79
2022-08-11T11:40:34.513Z,100363.91
2022-08-11T11:43:03.004Z,100362.70
2022-08-11T11:45:31.814Z,100360.52
2022-08-11T11:48:02.357Z,100362.02
2022-08-11T11:50:35.095Z,100360.66
2022-08-11T11:53:07.394Z,100356.40
2022-08-11T11:55:36.386Z,100355.71
2022-08-11T11:58:23.821Z,100354.16
2022-08-11T12:01:11.881Z,100345.52
2022-08-11T12:03:40.855Z,100340.35
2022-08-11T12:06:14.913Z,100335.38
2022-08-11T12:08:44.300Z,100334.77
2022-08-11T12:11:32.277Z,100333.79
2022-08-11T12:14:10.333Z,100337.22
2022-08-11T12:16:44.989Z,100334.33
2022-08-11T12:19:21.747Z,100338.07
2022-08-11T12:22:08.693Z,100341.59
2022-08-11T12:24:56.602Z,100335.81
2022-08-11T12:27:27.377Z,100333.77
2022-08-11T12:30:06.077Z,100336.66
2022-08-11T12:32:36.601Z,100333.94
2022-08-11T12:35:05.867Z,100329.92
2022-08-11T12:37:38.132Z,100327.23
2022-08-11T12:40:43.207Z,100321.08
2022-08-11T12:43:40.667Z,100318.38
2022-08-11T12:46:18.352Z,100315.30
2022-08-11T12:49:07.106Z,100311.70
2022-08-11T12:52:11.694Z,100315.11
2022-08-11T12:54:49.829Z,100313.70
2022-08-11T12:57:50.770Z,100311.70
2022-08-11T13:00:39.121Z,100312.20
2022-08-11T13:03:27.781Z,100307.89
2022-08-11T13:05:59.359Z,100304.61
2022-08-11T13:08:29.733Z,100308.56
2022-08-11T13:11:19.377Z,100303.22
2022-08-11T13:13:55.127Z,100307.00
2022-08-11T13:16:29.305Z,100300.41
2022-08-11T13:19:01.442Z,100298.20
2022-08-11T13:21:30.577Z,100294.60
2022-08-11T13:24:01.388Z,100294.73
2022-08-11T13:26:47.370Z,100287.71
2022-08-11T13:29:24.379Z,100283.55
2022-08-11T13:32:02.219Z,100282.00
2022-08-11T13:34:31.613Z,100283.98
2022-08-11T13:37:04.452Z,100280.58
2022-08-11T13:39:34.747Z,100275.74
2022-08-11T13:42:04.586Z,100280.81
2022-08-11T13:44:36.822Z,100276.20
2022-08-11T13:47:07.902Z,100268.64
2022-08-11T13:49:39.970Z,100273.77
2022-08-11T13:52:15.084Z,100266.95
2022-08-11T13:54:45.069Z,100272.10
2022-08-11T13:58:08.440Z,100270.61
2022-08-11T14:00:20.891Z,100271.88
2022-08-11T14:02:57.137Z,100274.83
2022-08-11T14:05:48.000Z,100271.48
2022-08-11T14:08:35.121Z,100268.56
2022-08-11T14:12:21.727Z,100267.18
2022-08-11T14:14:23.942Z,100269.23
2022-08-11T14:16:55.206Z,100267.88
2022-08-11T14:19:28.504Z,100258.55
2022-08-11T14:22:10.220Z,100258.95
2022-08-11T14:24:44.017Z,100264.84
2022-08-11T14:28:29.696Z,100263.73
2022-08-11T14:30:02.351Z,100262.60
2022-08-11T14:32:30.260Z,100262.36
2022-08-11T14:34:58.995Z,100256.55
2022-08-11T14:37:28.427Z,100252.45
2022-08-11T14:40:03.958Z,100250.71
2022-08-11T14:42:51.593Z,100246.98
2022-08-11T14:45:54.339Z,100250.02
2022-08-11T14:48:27.304Z,100251.47
2022-08-11T14:50:56.914Z,100248.48
2022-08-11T14:53:25.038Z,100247.20
2022-08-11T14:56:13.160Z,100247.45
2022-08-11T14:58:42.940Z,100242.34
2022-08-11T15:01:31.606Z,100239.67
2022-08-11T15:04:34.525Z,100240.65
2022-08-11T15:06:49.222Z,100247.36
2022-08-11T15:09:18.626Z,100248.34
2022-08-11T15:12:32.823Z,100248.42
2022-08-11T15:15:22.428Z,100246.58
2022-08-11T15:17:54.530Z,100241.83
2022-08-11T15:20:42.580Z,100244.19
2022-08-11T15:23:29.228Z,100240.42
2022-08-11T15:26:03.768Z,100239.27
2022-08-11T15:28:55.124Z,100238.45
2022-08-11T15:31:27.779Z,100237.41
2022-08-11T15:34:20.727Z,100239.08
2022-08-11T15:37:09.597Z,100239.42
2022-08-11T15:40:00.988Z,100234.98
2022-08-11T15:42:48.992Z,100238.60
2022-08-11T15:45:41.480Z,100234.45
2022-08-11T15:48:13.489Z,100228.77
2022-08-11T15:50:50.529Z,100228.33
2022-08-11T15:53:27.241Z,100228.28
2022-08-11T15:55:56.659Z,100228.27
2022-08-11T15:58:47.403Z,100225.00
2022-08-11T16:01:56.439Z,100226.22
2022-08-11T16:04:27.544Z,100222.39
2022-08-11T16:07:05.671Z,100221.45
2022-08-11T16:09:51.633Z,100218.88
2022-08-11T16:12:26.085Z,100215.84
2022-08-11T16:15:20.179Z,100215.36
2022-08-11T16:17:52.307Z,100218.44
2022-08-11T16:20:23.966Z,100221.13
2022-08-11T16:23:02.165Z,100215.81
2022-08-11T16:27:06.987Z,100219.36
2022-08-11T16:28:25.240Z,100219.09
2022-08-11T16:30:55.237Z,100217.96
2022-08-11T16:33:49.866Z,100217.50
2022-08-11T16:36:34.798Z,100216.11
2022-08-11T16:39:04.724Z,100210.23
2022-08-11T16:41:51.903Z,100212.04
2022-08-11T16:44:40.417Z,100213.34
2022-08-11T16:47:13.157Z,100208.05
2022-08-11T16:49:52.543Z,100212.45
2022-08-11T16:52:23.647Z,100213.92
2022-08-11T16:54:52.830Z,100213.98
2022-08-11T16:57:45.779Z,100213.55
2022-08-11T17:00:17.221Z,100215.38
2022-08-11T17:03:08.791Z,100215.79
2022-08-11T17:06:01.692Z,100219.16
2022-08-11T17:08:57.065Z,100220.10
2022-08-11T17:11:47.977Z,100223.34
2022-08-11T17:14:35.029Z,100224.00
2022-08-11T17:17:17.168Z,100219.79
2022-08-11T17:20:43.531Z,100217.23
2022-08-11T17:22:58.280Z,100217.48
2022-08-11T17:25:28.399Z,100219.20
2022-08-11T17:27:56.871Z,100222.30
2022-08-11T17:30:47.363Z,100221.59
2022-08-11T17:33:34.394Z,100225.13
2022-08-11T17:36:03.408Z,100225.53
2022-08-11T17:38:34.106Z,100223.64
2022-08-11T17:41:23.297Z,100223.66
2022-08-11T17:44:12.487Z,100229.55
2022-08-11T17:47:05.670Z,100227.23
2022-08-11T17:49:37.912Z,100232.84
2022-08-11T17:52:25.674Z,100232.48
2022-08-11T17:55:13.666Z,100236.13
2022-08-11T17:58:01.241Z,100238.00
2022-08-11T18:00:32.188Z,100240.04
2022-08-11T18:03:20.293Z,100242.57
2022-08-11T18:05:51.964Z,100242.43
2022-08-11T18:08:40.205Z,100242.70
2022-08-11T18:12:10.259Z,100245.71
2022-08-11T18:14:34.703Z,100254.92
2022-08-11T18:17:21.504Z,100257.10
2022-08-11T18:20:08.497Z,100261.20
2022-08-11T18:22:59.395Z,100257.80
2022-08-11T18:25:49.778Z,100266.94
2022-08-11T18:28:42.759Z,100272.23
2022-08-11T18:31:32.698Z,100275.54
2022-08-11T18:34:24.352Z,100275.64
2022-08-11T18:37:29.604Z,100278.23
2022-08-11T18:40:22.562Z,100279.60
2022-08-11T18:43:11.846Z,100283.40
2022-08-11T18:46:06.285Z,100279.73
2022-08-11T18:48:56.274Z,100282.87
2022-08-11T18:51:45.475Z,100285.67
2022-08-11T18:54:33.133Z,100287.05
2022-08-11T18:57:24.965Z,100287.94
2022-08-11T19:00:13.360Z,100287.27
2022-08-11T19:03:01.780Z,100291.44
2022-08-11T19:06:35.497Z,100292.87
2022-08-11T19:09:05.134Z,100292.27
2022-08-11T19:11:53.181Z,100296.95
2022-08-11T19:14:40.512Z,100293.98
2022-08-11T19:17:45.045Z,100293.89
2022-08-11T19:20:36.603Z,100301.91
2022-08-11T19:23:27.262Z,100303.77
2022-08-11T19:26:16.945Z,100308.48
2022-08-11T19:29:06.728Z,100310.20
2022-08-11T19:31:54.783Z,100314.02
2022-08-11T19:34:43.432Z,100315.10
2022-08-11T19:37:31.760Z,100312.25
2022-08-11T19:40:26.179Z,100314.64
2022-08-11T19:43:23.309Z,100310.35
2022-08-11T19:46:15.076Z,100309.31
2022-08-11T19:49:09.649Z,100306.80
2022-08-11T19:51:57.775Z,100305.85
2022-08-11T19:54:51.150Z,100302.11
2022-08-11T19:57:40.171Z,100298.73
2022-08-11T20:00:39.126Z,100300.45
2022-08-11T20:03:28.272Z,100299.83
2022-08-11T20:06:20.055Z,100306.77
2022-08-11T20:09:08.890Z,100311.66
2022-08-11T20:11:59.861Z,100307.52
2022-08-11T20:14:50.557Z,100311.55
2022-08-11T20:17:39.568Z,100316.45
2022-08-11T20:20:27.715Z,100315.77
2022-08-11T20:23:19.232Z,100315.65
2022-08-11T20:26:29.623Z,100317.22
2022-08-11T20:29:17.024Z,100320.20
2022-08-11T20:32:06.488Z,100324.01
2022-08-11T20:34:59.824Z,100321.83
2022-08-11T20:37:51.034Z,100319.61
2022-08-11T20:40:45.991Z,100319.12
2022-08-11T20:44:05.958Z,100317.31
2022-08-11T20:46:45.660Z,100325.48
2022-08-11T20:49:45.218Z,100321.41
2022-08-11T20:52:40.237Z,100322.42
2022-08-11T20:55:52.315Z,100324.63
2022-08-11T20:59:10.943Z,100332.54
2022-08-11T21:01:45.691Z,100335.56
2022-08-11T21:04:33.367Z,100333.45
2022-08-11T21:07:39.349Z,100336.85
2022-08-11T21:10:29.105Z,100336.98
2022-08-11T21:13:25.893Z,100338.48
2022-08-11T21:16:25.619Z,100342.96
2022-08-11T21:19:55.177Z,100348.00
2022-08-11T21:22:36.976Z,100349.23
2022-08-11T21:25:27.335Z,100358.39
2022-08-11T21:28:21.915Z,100355.76
2022-08-11T21:31:09.601Z,100357.28
2022-08-11T21:33:58.536Z,100358.29
2022-08-11T21:36:46.310Z,100364.89
2022-08-11T21:39:37.892Z,100363.84
2022-08-11T21:42:25.446Z,100360.90
2022-08-11T21:45:14.082Z,100360.31
2022-08-11T21:48:02.137Z,100360.64
2022-08-11T21:50:48.675Z,100360.73
2022-08-11T21:53:36.302Z,100358.75
2022-08-11T21:56:26.183Z,100352.16
2022-08-11T21:59:16.006Z,100352.23
2022-08-11T22:02:03.619Z,100355.70
2022-08-11T22:04:52.830Z,100349.19
2022-08-11T22:07:41.027Z,100347.73
2022-08-11T22:10:41.811Z,100347.64
2022-08-11T22:13:32.520Z,100349.53
2022-08-11T22:16:19.627Z,100347.08
2022-08-11T22:19:07.487Z,100347.79
2022-08-11T22:22:03.294Z,100349.27
2022-08-11T22:24:52.340Z,100355.05
2022-08-11T22:27:40.495Z,100350.24
2022-08-11T22:30:29.356Z,100348.57
2022-08-11T22:33:24.484Z,100352.92
2022-08-11T22:36:14.386Z,100352.21
2022-08-11T22:39:03.817Z,100355.52
2022-08-11T22:41:50.278Z,100354.04
2022-08-11T22:44:37.409Z,100351.29
2022-08-11T22:47:27.516Z,100348.19
2022-08-11T22:50:27.509Z,100345.65
2022-08-11T22:53:16.144Z,100348.43
2022-08-11T22:56:04.828Z,100343.02
2022-08-11T22:58:52.195Z,100348.35
2022-08-11T23:01:39.763Z,100343.21
2022-08-11T23:04:43.987Z,100342.05
2022-08-11T23:07:50.368Z,100343.66
2022-08-11T23:10:39.592Z,100341.44
2022-08-11T23:13:28.107Z,100337.00
2022-08-11T23:16:16.576Z,100334.86
2022-08-11T23:19:04.976Z,100329.92
2022-08-11T23:21:53.258Z,100334.77
2022-08-11T23:24:41.159Z,100339.70
2022-08-11T23:27:28.668Z,100332.19
2022-08-11T23:30:18.781Z,100337.23
2022-08-11T23:33:10.820Z,100340.06
2022-08-11T23:36:05.339Z,100338.67
2022-08-11T23:38:52.722Z,100339.27
2022-08-11T23:41:39.724Z,100339.70
2022-08-11T23:44:27.567Z,100337.88
2022-08-11T23:47:17.754Z,100340.25
2022-08-11T23:50:05.838Z,100340.83
2022-08-11T23:52:54.836Z,100338.17
2022-08-11T23:55:42.014Z,100342.80
2022-08-11T23:58:30.329Z,100344.36
